Time;durP1;ratioP1;P1;durP2;ratioP2;P2;SDS_P1;SDS_P2;PMS_P1;PMS_P2;Temp;Humidity;BMP_temperature;BMP_pressure;BME280_temperature;BME280_humidity;BME280_pressure;Samples;Min_cycle;Max_cycle;Signal;HPM_P1;HPM_P2
2022/05/23 00:01:58;;;;;;;6.18;1.73;;;17.00;99.90;;;;;;4972709;28;20034;-82
2022/05/23 00:04:24;;;;;;;4.75;1.92;;;17.00;99.90;;;;;;4973705;28;20039;-82
2022/05/23 00:06:50;;;;;;;2.42;1.75;;;17.00;99.90;;;;;;4976239;28;20085;-82
2022/05/23 00:09:16;;;;;;;3.25;1.70;;;17.00;99.90;;;;;;4993221;28;20384;-82
2022/05/23 00:11:42;;;;;;;4.13;1.60;;;16.90;99.90;;;;;;4993214;28;20030;-82
2022/05/23 00:14:08;;;;;;;5.28;1.85;;;16.90;99.90;;;;;;4993286;28;20046;-82
2022/05/23 00:16:37;;;;;;;3.40;1.90;;;16.90;99.90;;;;;;4975633;28;20030;-82
2022/05/23 00:19:03;;;;;;;4.65;1.77;;;16.90;99.90;;;;;;4992884;28;20018;-82
2022/05/23 00:21:28;;;;;;;2.38;1.52;;;16.90;99.90;;;;;;4992506;28;20023;-82
2022/05/23 00:23:54;;;;;;;3.88;1.90;;;16.90;99.90;;;;;;4992876;28;20526;-82
2022/05/23 00:26:21;;;;;;;5.30;2.05;;;16.90;99.90;;;;;;4975372;28;20114;-82
2022/05/23 00:28:47;;;;;;;5.07;1.83;;;16.90;99.90;;;;;;4992373;28;20028;-82
2022/05/23 00:31:13;;;;;;;3.55;1.70;;;16.90;99.90;;;;;;4992875;28;20073;-82
2022/05/23 00:36:28;;;;;;;4.85;2.10;;;16.80;99.90;;;;;;4992987;28;20122;-82
2022/05/23 00:38:54;;;;;;;4.05;1.83;;;16.80;99.90;;;;;;4992491;28;20033;-82
2022/05/23 00:44:20;;;;;;;3.97;2.03;;;16.70;99.90;;;;;;4992403;28;20730;-82
2022/05/23 00:46:59;;;;;;;3.55;2.00;;;16.60;99.90;;;;;;4992280;28;20035;-82
2022/05/23 00:49:33;;;;;;;6.95;2.67;;;16.60;99.90;;;;;;4992538;28;20026;-82
2022/05/23 00:52:04;;;;;;;5.50;2.25;;;16.60;99.90;;;;;;4992285;28;20018;-82
2022/05/23 00:54:44;;;;;;;3.47;1.98;;;16.50;99.90;;;;;;4989219;28;20042;-82
2022/05/23 00:57:15;;;;;;;3.67;1.80;;;16.50;99.90;;;;;;4955779;28;20023;-82
2022/05/23 00:59:41;;;;;;;4.05;1.90;;;16.40;99.90;;;;;;4972730;28;20034;-82
2022/05/23 01:02:10;;;;;;;4.90;1.90;;;16.40;99.90;;;;;;4973972;28;20455;-82
2022/05/23 01:04:37;;;;;;;6.35;2.13;;;16.40;99.90;;;;;;4972842;28;20364;-82
2022/05/23 01:07:03;;;;;;;5.45;2.05;;;16.40;99.90;;;;;;4972893;28;20019;-82
2022/05/23 01:09:28;;;;;;;5.80;2.17;;;16.40;99.90;;;;;;4972728;28;20384;-82
2022/05/23 01:11:56;;;;;;;3.10;1.73;;;16.30;99.90;;;;;;4955586;28;20077;-82
2022/05/23 01:14:22;;;;;;;4.97;1.80;;;16.40;99.90;;;;;;4982763;28;20041;-82
2022/05/23 01:16:48;;;;;;;3.25;1.77;;;16.40;99.90;;;;;;4991960;28;20425;-82
2022/05/23 01:19:14;;;;;;;5.88;2.00;;;16.30;99.90;;;;;;4991930;28;20109;-82
2022/05/23 01:21:55;;;;;;;23.40;4.43;;;16.30;99.90;;;;;;4974582;28;20054;-82
2022/05/23 01:24:35;;;;;;;27.10;4.40;;;16.30;99.90;;;;;;4992094;28;20030;-82
2022/05/23 01:27:02;;;;;;;6.35;2.38;;;16.30;99.90;;;;;;4991948;28;20027;-82
2022/05/23 01:29:27;;;;;;;4.65;2.00;;;16.40;99.90;;;;;;4991852;28;20037;-82
2022/05/23 01:31:55;;;;;;;2.92;1.80;;;16.30;99.90;;;;;;4991779;28;20391;-82
2022/05/23 01:34:21;;;;;;;5.93;1.90;;;16.30;99.90;;;;;;4991629;28;20050;-82
2022/05/23 01:36:46;;;;;;;4.18;2.10;;;16.30;99.90;;;;;;4973734;28;20126;-82
2022/05/23 01:39:12;;;;;;;6.00;2.75;;;16.30;99.90;;;;;;4972649;28;20027;-82
2022/05/23 01:41:38;;;;;;;6.35;1.80;;;16.30;99.90;;;;;;4955306;28;20027;-82
2022/05/23 01:44:03;;;;;;;3.75;2.05;;;16.30;99.90;;;;;;4972289;28;20052;-82
2022/05/23 01:46:29;;;;;;;4.20;1.95;;;16.30;99.90;;;;;;4973437;28;20030;-82
2022/05/23 01:48:55;;;;;;;6.78;2.30;;;16.30;99.90;;;;;;4972236;28;20023;-82
2022/05/23 01:51:20;;;;;;;4.05;2.20;;;16.20;99.90;;;;;;4972603;28;20066;-82
2022/05/23 01:53:46;;;;;;;3.70;2.10;;;16.20;99.90;;;;;;4976562;28;20080;-82
2022/05/23 01:56:11;;;;;;;4.97;2.00;;;16.20;99.90;;;;;;4985497;28;20157;-82
2022/05/23 02:01:21;;;;;;;4.45;2.35;;;16.20;99.90;;;;;;4976334;28;20806;-82
2022/05/23 02:03:48;;;;;;;4.15;2.00;;;16.20;99.90;;;;;;4976014;28;20031;-82
2022/05/23 02:06:14;;;;;;;4.10;1.88;;;16.20;99.90;;;;;;4975772;28;20041;-82
2022/05/23 02:08:40;;;;;;;5.55;1.80;;;16.20;99.90;;;;;;4976333;28;20027;-82
2022/05/23 02:11:06;;;;;;;3.97;2.25;;;16.30;99.90;;;;;;4958562;28;20428;-82
2022/05/23 02:13:34;;;;;;;5.03;2.08;;;16.30;99.90;;;;;;4976334;28;20031;-82
2022/05/23 02:16:00;;;;;;;4.72;2.13;;;16.30;99.90;;;;;;4975732;28;20106;-82
2022/05/23 02:18:26;;;;;;;4.43;1.90;;;16.30;99.90;;;;;;4975688;28;20106;-82
2022/05/23 02:20:52;;;;;;;6.10;2.08;;;16.30;99.90;;;;;;4976050;28;20031;-82
2022/05/23 02:23:17;;;;;;;4.25;1.83;;;16.30;99.90;;;;;;4958350;28;20551;-82
2022/05/23 02:25:46;;;;;;;2.88;1.90;;;16.30;99.90;;;;;;4975515;28;20461;-82
2022/05/23 02:28:12;;;;;;;3.28;1.70;;;16.30;99.90;;;;;;4975878;28;20077;-82
2022/05/23 02:30:38;;;;;;;22.23;3.85;;;16.30;99.90;;;;;;4957949;28;20059;-82
2022/05/23 02:33:04;;;;;;;20.88;4.15;;;16.30;99.90;;;;;;4975219;28;20035;-82
2022/05/23 02:35:29;;;;;;;19.52;3.30;;;16.30;99.90;;;;;;4975495;28;20104;-82
2022/05/23 02:37:55;;;;;;;17.40;2.95;;;16.30;99.90;;;;;;4985052;28;20058;-82
2022/05/23 02:40:21;;;;;;;11.35;2.70;;;16.30;99.90;;;;;;4995118;28;20062;-82
2022/05/23 02:42:47;;;;;;;10.68;2.67;;;16.30;99.90;;;;;;4995223;28;20030;-82
2022/05/23 02:45:12;;;;;;;5.05;2.22;;;16.30;99.90;;;;;;4994722;28;20030;-82
2022/05/23 02:47:38;;;;;;;7.07;1.90;;;16.30;99.90;;;;;;4995059;28;20054;-82
2022/05/23 02:50:04;;;;;;;4.93;2.20;;;16.30;99.90;;;;;;4994851;28;20026;-82
2022/05/23 02:52:30;;;;;;;4.68;1.77;;;16.30;99.90;;;;;;4993921;28;20438;-82
2022/05/23 02:54:55;;;;;;;5.28;1.83;;;16.20;99.90;;;;;;4986478;28;20109;-82
2022/05/23 02:57:21;;;;;;;3.33;1.77;;;16.20;99.90;;;;;;4975185;28;20042;-82
2022/05/23 02:59:47;;;;;;;4.70;2.08;;;16.20;99.90;;;;;;4975414;28;20503;-82
2022/05/23 03:04:56;;;;;;;4.50;2.10;;;16.10;99.90;;;;;;4988800;28;20541;-82
2022/05/23 03:07:22;;;;;;;4.15;2.42;;;16.10;99.90;;;;;;4994197;28;20109;-82
2022/05/23 03:09:47;;;;;;;6.15;2.60;;;16.10;99.90;;;;;;4994525;28;20026;-82
2022/05/23 03:12:13;;;;;;;5.75;2.72;;;16.10;99.90;;;;;;4994464;28;20462;-82
2022/05/23 03:14:38;;;;;;;6.80;2.33;;;16.10;99.90;;;;;;4982195;28;20481;-82
2022/05/23 03:17:07;;;;;;;6.32;2.58;;;16.00;99.90;;;;;;4974954;28;20136;-82
2022/05/23 03:19:37;;;;;;;3.95;2.30;;;16.00;99.90;;;;;;4974736;28;20059;-82
2022/05/23 03:27:32;;;;;;;4.88;2.08;;;15.90;99.90;;;;;;4993949;28;19948;-82
2022/05/23 03:29:57;;;;;;;3.15;1.90;;;15.90;99.90;;;;;;4994092;28;20766;-82
2022/05/23 03:32:23;;;;;;;4.88;2.05;;;15.90;99.90;;;;;;4976300;28;20030;-82
2022/05/23 03:34:49;;;;;;;7.20;2.10;;;15.90;99.90;;;;;;4993960;28;20384;-82
2022/05/23 03:37:14;;;;;;;6.82;2.20;;;15.90;99.90;;;;;;4993776;28;20056;-82
2022/05/23 03:39:43;;;;;;;4.15;2.40;;;15.90;99.90;;;;;;4972390;28;20045;-82
2022/05/23 03:42:09;;;;;;;5.30;2.20;;;15.90;99.90;;;;;;4976114;28;20027;-82
2022/05/23 03:44:35;;;;;;;5.72;2.50;;;15.90;99.90;;;;;;4974192;28;20118;-82
2022/05/23 03:47:02;;;;;;;7.32;2.25;;;15.90;99.90;;;;;;4974401;28;20492;-82
2022/05/23 03:49:28;;;;;;;5.80;2.35;;;15.90;99.90;;;;;;4974128;28;20055;-82
2022/05/23 03:51:54;;;;;;;9.82;2.45;;;15.90;99.90;;;;;;4974127;28;20077;-82
2022/05/23 03:54:20;;;;;;;6.47;2.33;;;15.90;99.90;;;;;;4976547;28;20054;-82
2022/05/23 03:56:46;;;;;;;5.60;2.40;;;15.90;99.90;;;;;;4986258;28;20065;-82
2022/05/23 03:59:11;;;;;;;7.53;2.45;;;15.90;99.90;;;;;;4993512;28;20030;-81
2022/05/23 04:01:37;;;;;;;7.90;1.92;;;15.90;99.90;;;;;;4993197;28;20101;-81
2022/05/23 04:04:03;;;;;;;5.55;2.25;;;16.00;99.90;;;;;;4993460;28;20030;-81
2022/05/23 04:06:29;;;;;;;9.80;2.60;;;15.90;99.90;;;;;;4993237;28;20085;-81
2022/05/23 04:08:54;;;;;;;8.68;2.20;;;15.90;99.90;;;;;;4993388;28;20042;-81
2022/05/23 04:11:21;;;;;;;6.55;1.98;;;15.90;99.90;;;;;;4991074;28;20062;-81
2022/05/23 04:13:47;;;;;;;7.28;2.00;;;16.00;99.90;;;;;;4993598;28;20030;-82
2022/05/23 04:16:13;;;;;;;7.22;2.08;;;15.90;99.90;;;;;;4987040;28;20266;-82
2022/05/23 04:18:38;;;;;;;10.88;2.40;;;16.00;99.90;;;;;;4993560;28;20368;-82
2022/05/23 04:21:05;;;;;;;5.50;2.30;;;16.00;99.90;;;;;;4983121;28;20041;-82
2022/05/23 04:23:31;;;;;;;13.05;2.92;;;16.00;99.90;;;;;;4966604;28;20026;-82
2022/05/23 04:26:01;;;;;;;22.90;4.30;;;16.10;99.90;;;;;;4989576;28;20379;-82
2022/05/23 04:28:26;;;;;;;16.13;3.58;;;16.20;99.90;;;;;;4983768;28;20019;-82
2022/05/23 04:30:52;;;;;;;9.27;3.40;;;16.20;99.90;;;;;;4982410;28;20074;-82
2022/05/23 04:36:01;;;;;;;10.35;2.63;;;16.30;99.90;;;;;;4986419;28;21272;-82
2022/05/23 04:38:27;;;;;;;8.18;2.20;;;16.40;99.90;;;;;;4983576;28;20030;-81
2022/05/23 04:40:53;;;;;;;8.20;2.42;;;16.40;99.90;;;;;;4982532;28;20444;-81
2022/05/23 04:43:18;;;;;;;9.23;2.10;;;16.50;99.90;;;;;;4984617;28;20038;-81
2022/05/23 04:45:44;;;;;;;7.35;2.70;;;16.50;99.90;;;;;;4985289;28;20148;-81
2022/05/23 04:50:54;;;;;;;6.95;2.53;;;16.60;99.90;;;;;;4984550;28;20037;-82
2022/05/23 04:53:20;;;;;;;10.05;2.60;;;16.60;99.90;;;;;;4968849;28;20038;-82
2022/05/23 04:55:46;;;;;;;7.60;2.60;;;16.70;99.90;;;;;;4979792;28;20203;-82
2022/05/23 04:58:12;;;;;;;9.13;2.85;;;16.70;99.90;;;;;;4980653;28;20038;-83
2022/05/23 05:00:40;;;;;;;6.28;2.53;;;16.80;99.90;;;;;;4983856;28;20038;-86
2022/05/23 05:03:06;;;;;;;7.93;2.72;;;16.80;99.90;;;;;;4960640;28;20038;-75
2022/05/23 05:05:33;;;;;;;5.97;2.35;;;16.80;99.90;;;;;;4993472;28;20105;-75
2022/05/23 05:08:00;;;;;;;5.47;2.65;;;16.90;99.90;;;;;;4994497;28;20490;-75
2022/05/23 05:10:26;;;;;;;7.85;2.67;;;16.90;99.90;;;;;;4994475;28;20034;-75
2022/05/23 05:12:53;;;;;;;6.90;2.63;;;16.90;99.90;;;;;;4977239;28;20037;-75
2022/05/23 05:15:19;;;;;;;10.05;3.25;;;17.00;99.90;;;;;;4977212;28;20062;-74
2022/05/23 05:17:45;;;;;;;10.48;2.53;;;17.00;99.90;;;;;;4994689;28;20046;-76
2022/05/23 05:20:12;;;;;;;10.88;2.70;;;17.00;99.90;;;;;;4994148;28;20034;-75
2022/05/23 05:22:37;;;;;;;7.75;2.35;;;17.00;99.90;;;;;;4994355;28;20061;-75
2022/05/23 05:25:05;;;;;;;6.03;2.03;;;17.00;99.90;;;;;;4993889;28;20145;-84
2022/05/23 05:27:31;;;;;;;7.95;2.75;;;17.00;99.90;;;;;;4991874;28;20353;-83
2022/05/23 05:29:57;;;;;;;9.10;2.92;;;17.10;99.90;;;;;;4992662;28;20085;-83
2022/05/23 05:32:49;;;;;;;7.25;3.17;;;17.10;99.90;;;;;;4975448;28;20109;-83
2022/05/23 05:35:37;;;;;;;7.32;2.88;;;17.20;99.90;;;;;;4991479;28;20137;-83
2022/05/23 05:38:13;;;;;;;8.38;2.90;;;17.20;99.90;;;;;;4986009;28;20022;-83
2022/05/23 05:40:40;;;;;;;8.35;2.92;;;17.30;99.90;;;;;;4972588;28;20053;-84
2022/05/23 05:43:13;;;;;;;8.55;3.10;;;17.40;99.90;;;;;;4986862;28;20037;-84
2022/05/23 05:45:48;;;;;;;9.25;3.28;;;17.50;99.90;;;;;;4992649;28;20117;-83
2022/05/23 05:48:16;;;;;;;6.88;3.25;;;17.60;99.90;;;;;;4976274;28;20042;-84
2022/05/23 05:50:43;;;;;;;6.82;2.80;;;17.70;99.90;;;;;;4993095;28;20096;-83
2022/05/23 05:53:11;;;;;;;10.48;3.55;;;17.70;99.90;;;;;;4975609;28;20029;-83
2022/05/23 05:55:39;;;;;;;9.25;2.80;;;17.80;99.90;;;;;;4975553;28;20551;-84
2022/05/23 05:58:05;;;;;;;9.80;3.28;;;17.90;99.90;;;;;;4976528;28;20026;-84
2022/05/23 06:00:31;;;;;;;6.03;3.08;;;17.90;99.90;;;;;;4993569;28;20037;-84
2022/05/23 06:02:56;;;;;;;7.82;2.88;;;18.00;99.90;;;;;;4977305;28;20035;-84
2022/05/23 06:05:22;;;;;;;12.45;2.90;;;18.00;99.90;;;;;;4983023;28;20027;-83
2022/05/23 06:13:17;;;;;;;11.50;3.90;;;18.20;99.90;;;;;;4978444;28;20081;-83
2022/05/23 06:15:44;;;;;;;7.90;2.72;;;18.20;99.90;;;;;;4986753;28;20034;-83
2022/05/23 06:18:10;;;;;;;11.57;3.47;;;18.20;99.90;;;;;;4990534;28;20026;-84
2022/05/23 06:20:36;;;;;;;12.05;4.70;;;18.30;99.90;;;;;;4981938;28;20027;-84
2022/05/23 06:23:03;;;;;;;10.70;3.45;;;18.30;99.90;;;;;;4991859;28;20165;-82
2022/05/23 06:25:28;;;;;;;12.98;3.72;;;18.40;99.90;;;;;;4985641;28;20029;-81
2022/05/23 06:27:54;;;;;;;11.57;3.85;;;18.50;99.90;;;;;;4978953;28;20670;-81
2022/05/23 06:30:20;;;;;;;8.65;2.80;;;18.70;99.90;;;;;;4976277;28;20019;-81
2022/05/23 06:32:46;;;;;;;7.47;2.45;;;18.80;99.90;;;;;;4973470;28;20437;-81
2022/05/23 06:35:13;;;;;;;6.38;2.95;;;18.90;99.90;;;;;;4990614;28;20129;-81
2022/05/23 06:37:40;;;;;;;11.52;3.08;;;19.00;99.90;;;;;;4992835;28;20065;-81
2022/05/23 06:40:08;;;;;;;8.32;2.80;;;19.10;99.90;;;;;;4995729;28;20023;-80
2022/05/23 06:42:35;;;;;;;5.75;2.83;;;19.20;99.90;;;;;;4996051;28;20038;-80
2022/05/23 06:45:01;;;;;;;8.85;3.33;;;19.20;99.90;;;;;;4975992;28;20035;-81
2022/05/23 06:47:27;;;;;;;14.55;4.07;;;19.20;99.90;;;;;;5003580;28;20018;-80
2022/05/23 06:49:53;;;;;;;10.23;3.30;;;19.30;99.90;;;;;;4984366;28;20026;-80
2022/05/23 06:52:19;;;;;;;12.15;3.20;;;19.30;99.90;;;;;;5003670;28;20386;-81
2022/05/23 06:54:45;;;;;;;12.13;3.28;;;19.30;99.90;;;;;;5000138;28;20037;-81
2022/05/23 06:57:11;;;;;;;6.45;3.00;;;19.30;99.90;;;;;;4999117;28;20038;-80
2022/05/23 06:59:37;;;;;;;6.60;2.60;;;19.30;99.90;;;;;;5003885;28;20050;-80
2022/05/23 07:02:06;;;;;;;11.15;2.97;;;19.30;99.90;;;;;;4997978;28;20113;-81
2022/05/23 07:12:45;;;;;;;6.27;3.50;;;19.00;99.90;;;;;;5004788;28;20097;-80
2022/05/23 07:15:10;;;;;;;8.27;3.15;;;18.80;99.90;;;;;;4985696;28;20467;-80
2022/05/23 07:17:36;;;;;;;5.18;2.90;;;18.70;99.90;;;;;;5004053;28;20037;-80
2022/05/23 07:20:02;;;;;;;8.00;3.05;;;18.60;99.90;;;;;;4999851;28;20069;-81
2022/05/23 07:22:28;;;;;;;5.75;2.80;;;18.50;99.90;;;;;;5004684;28;20030;-80
2022/05/23 07:24:53;;;;;;;4.28;2.85;;;18.50;99.90;;;;;;4998424;28;20464;-80
2022/05/23 07:27:25;;;;;;;5.25;2.78;;;18.50;99.90;;;;;;5002568;28;20042;-81
2022/05/23 07:29:50;;;;;;;10.10;2.78;;;18.60;99.90;;;;;;5007030;28;20018;-80
2022/05/23 07:32:16;;;;;;;5.13;3.13;;;18.50;99.90;;;;;;5003462;28;20109;-80
2022/05/23 07:34:43;;;;;;;6.07;2.97;;;18.50;99.90;;;;;;4998690;28;20096;-80
2022/05/23 07:37:10;;;;;;;6.95;3.30;;;18.30;99.90;;;;;;4995965;28;20034;-75
2022/05/23 07:39:37;;;;;;;9.57;3.38;;;18.20;99.90;;;;;;4996997;28;20146;-75
2022/05/23 07:42:06;;;;;;;6.80;3.13;;;18.10;99.90;;;;;;4996559;28;20057;-75
2022/05/23 07:44:32;;;;;;;7.88;3.10;;;18.00;99.90;;;;;;4979214;28;20415;-75
2022/05/23 07:46:58;;;;;;;5.80;3.08;;;17.90;99.90;;;;;;4997456;28;20057;-75
2022/05/23 07:49:24;;;;;;;6.38;3.35;;;17.80;99.90;;;;;;4995906;28;20030;-75
2022/05/23 07:51:49;;;;;;;7.60;2.88;;;17.90;99.90;;;;;;4995775;28;20033;-75
2022/05/23 08:02:27;;;;;;;9.38;3.03;;;18.10;99.90;;;;;;4995633;28;20387;-75
2022/05/23 08:04:54;;;;;;;4.78;2.80;;;18.10;99.90;;;;;;4995502;28;20023;-75
2022/05/23 08:07:20;;;;;;;4.43;2.80;;;18.20;99.90;;;;;;4977389;28;20022;-76
2022/05/23 08:09:45;;;;;;;5.55;3.53;;;18.30;99.90;;;;;;4959080;28;20050;-75
2022/05/23 08:12:15;;;;;;;6.05;2.80;;;18.30;99.90;;;;;;4976087;28;20046;-74
2022/05/23 08:14:41;;;;;;;8.80;3.10;;;18.30;99.90;;;;;;4959631;28;20032;-73
2022/05/23 08:17:06;;;;;;;7.18;2.75;;;18.30;99.90;;;;;;4959220;28;20037;-74
2022/05/23 08:19:32;;;;;;;8.15;2.70;;;18.20;99.90;;;;;;4975679;28;20113;-73
2022/05/23 08:21:59;;;;;;;8.32;2.95;;;18.10;99.90;;;;;;4975672;28;20073;-74
2022/05/23 08:24:25;;;;;;;7.97;3.45;;;18.10;99.90;;;;;;4957315;28;20467;-74
2022/05/23 08:26:50;;;;;;;8.23;3.33;;;17.90;99.90;;;;;;4974890;28;20027;-78
2022/05/23 08:29:16;;;;;;;8.80;3.28;;;17.80;99.90;;;;;;4975928;28;20031;-78
2022/05/23 08:31:42;;;;;;;7.80;3.55;;;17.60;99.90;;;;;;4976843;28;20046;-77
2022/05/23 08:34:08;;;;;;;7.57;3.22;;;17.50;99.90;;;;;;4984945;28;20146;-87
2022/05/23 08:36:34;;;;;;;8.73;3.40;;;17.50;99.90;;;;;;4976913;28;20125;-88
2022/05/23 08:39:00;;;;;;;6.18;2.90;;;17.70;99.90;;;;;;4994407;28;20519;-88
2022/05/23 08:41:39;;;;;;;8.57;3.10;;;18.00;99.90;;;;;;4977010;28;20033;-87
2022/05/23 08:44:08;;;;;;;6.82;3.08;;;18.20;99.90;;;;;;4994044;28;20365;-88
2022/05/23 08:46:59;;;;;;;7.72;3.25;;;18.30;99.90;;;;;;4975051;28;20031;-87
2022/05/23 08:49:58;;;;;;;7.65;3.50;;;18.30;99.90;;;;;;4957546;28;20023;-88
2022/05/23 08:52:42;;;;;;;8.55;3.17;;;18.50;99.90;;;;;;4985365;28;20108;-88
2022/05/23 08:55:36;;;;;;;9.40;3.67;;;18.70;99.90;;;;;;4990319;28;20026;-88
2022/05/23 08:58:08;;;;;;;9.20;3.17;;;19.00;99.90;;;;;;4995807;28;20116;-88
2022/05/23 09:00:39;;;;;;;7.38;2.95;;;19.20;99.90;;;;;;4994504;28;20105;-87
2022/05/23 09:03:23;;;;;;;7.68;3.00;;;19.40;99.90;;;;;;4993902;28;20051;-87
2022/05/23 09:06:07;;;;;;;7.72;3.17;;;19.60;99.90;;;;;;4971706;28;20054;-88
2022/05/23 09:08:40;;;;;;;9.77;3.03;;;19.70;99.90;;;;;;4963576;28;20023;-87
2022/05/23 09:11:21;;;;;;;10.60;3.53;;;19.90;99.90;;;;;;4974488;28;20034;-88
2022/05/23 09:13:46;;;;;;;11.50;3.53;;;20.10;99.90;;;;;;4980502;28;20026;-87
2022/05/23 09:16:13;;;;;;;8.98;3.30;;;20.20;99.90;;;;;;5004517;28;20030;-85
2022/05/23 09:19:02;;;;;;;6.97;3.58;;;20.30;99.90;;;;;;4981055;28;20058;-85
2022/05/23 09:24:16;;;;;;;9.82;3.38;;;20.70;99.90;;;;;;5000484;28;20038;-82
2022/05/23 09:26:44;;;;;;;10.35;3.97;;;21.00;99.90;;;;;;5000984;28;20073;-82
2022/05/23 09:29:10;;;;;;;12.05;3.88;;;21.30;99.90;;;;;;4992289;28;20023;-87
2022/05/23 09:31:51;;;;;;;9.82;3.22;;;21.50;99.90;;;;;;4991738;28;20022;-87
2022/05/23 09:34:34;;;;;;;7.00;2.90;;;21.80;99.90;;;;;;4992470;28;20038;-80
2022/05/23 09:37:02;;;;;;;7.95;2.83;;;22.10;99.90;;;;;;4992547;28;20514;-81
2022/05/23 09:39:30;;;;;;;6.80;2.85;;;22.30;99.90;;;;;;4979326;28;20467;-81
2022/05/23 09:47:54;;;;;;;9.43;2.80;;;22.80;99.90;;;;;;4970167;28;20042;-81
2022/05/23 09:50:27;;;;;;;11.70;2.72;;;22.90;99.90;;;;;;4964376;28;20062;-80
2022/05/23 09:53:01;;;;;;;7.38;2.38;;;23.00;99.90;;;;;;4980792;28;20031;-81
2022/05/23 09:55:31;;;;;;;;;;;23.20;99.90;;;;;;4985680;28;20505;-81
2022/05/23 09:58:01;;;;;;;4.97;2.08;;;23.30;99.90;;;;;;4976851;28;19906;-81
2022/05/23 10:00:38;;;;;;;8.10;2.55;;;23.40;99.90;;;;;;5000033;28;20022;-80
2022/05/23 10:03:18;;;;;;;8.50;2.40;;;23.50;99.90;;;;;;5012693;28;20056;-80
2022/05/23 10:05:50;;;;;;;12.07;2.58;;;23.60;99.90;;;;;;5004403;28;20383;-80
2022/05/23 10:08:27;;;;;;;6.60;2.90;;;23.80;99.90;;;;;;4974491;28;20031;-81
2022/05/23 10:10:59;;;;;;;8.98;2.83;;;24.00;99.90;;;;;;4992031;28;20429;-80
2022/05/23 10:13:38;;;;;;;11.10;2.25;;;24.10;99.90;;;;;;5001109;28;20023;-80
2022/05/23 10:16:11;;;;;;;8.57;2.53;;;24.10;99.90;;;;;;4995329;28;20038;-80
2022/05/23 10:18:45;;;;;;;6.05;2.10;;;24.30;99.90;;;;;;5016540;28;20056;-80
2022/05/23 10:21:46;;;;;;;9.75;2.88;;;24.20;99.90;;;;;;5016674;28;20045;-80
2022/05/23 10:24:26;;;;;;;7.90;2.53;;;24.40;99.90;;;;;;4977274;28;20491;-80
2022/05/23 10:27:00;;;;;;;6.53;2.28;;;24.70;99.90;;;;;;5002262;28;20134;-80
2022/05/23 10:29:58;;;;;;;10.50;2.23;;;24.80;99.90;;;;;;4999341;28;20116;-81
2022/05/23 10:32:46;;;;;;;11.77;2.72;;;24.90;99.90;;;;;;5001037;28;20356;-80
2022/05/23 10:35:21;;;;;;;7.03;2.25;;;24.90;99.90;;;;;;5001019;28;20149;-80
2022/05/23 10:37:47;;;;;;;11.88;2.30;;;24.90;99.90;;;;;;5002278;28;20022;-81
2022/05/23 10:43:21;;;;;;;9.75;3.20;;;25.00;99.90;;;;;;4999678;28;20033;-82
2022/05/23 10:45:52;;;;;;;10.05;2.47;;;25.10;99.90;;;;;;4969300;28;20036;-76
2022/05/23 10:48:46;;;;;;;9.80;2.67;;;25.10;99.90;;;;;;4986483;28;20023;-76
2022/05/23 10:51:33;;;;;;;7.80;2.30;;;25.20;99.90;;;;;;4977591;28;20023;-76
2022/05/23 10:54:27;;;;;;;8.90;2.65;;;25.30;99.90;;;;;;4977429;28;20057;-76
2022/05/23 10:57:08;;;;;;;9.73;2.53;;;25.40;99.90;;;;;;4976465;28;20106;-76
2022/05/23 10:59:53;;;;;;;8.60;3.22;;;25.50;99.90;;;;;;4977852;28;20396;-76
2022/05/23 11:02:42;;;;;;;5.28;2.55;;;25.50;99.90;;;;;;4976416;28;20033;-76
2022/05/23 11:05:41;;;;;;;8.55;3.17;;;25.80;99.90;;;;;;4977430;28;20043;-76
2022/05/23 11:08:37;;;;;;;8.80;2.58;;;26.10;99.90;;;;;;5008323;28;20117;-74
2022/05/23 11:11:18;;;;;;;13.02;2.42;;;26.50;99.90;;;;;;5009353;28;20510;-74
2022/05/23 11:14:02;;;;;;;5.65;2.65;;;26.70;99.90;;;;;;4978876;28;20368;-77
2022/05/23 11:16:39;;;;;;;10.65;2.53;;;26.80;99.90;;;;;;4969076;28;20038;-76
2022/05/23 11:19:35;;;;;;;16.20;3.17;;;26.70;99.90;;;;;;5001695;28;20393;-76
2022/05/23 11:22:19;;;;;;;9.40;2.40;;;26.70;99.90;;;;;;4983128;28;20041;-76
2022/05/23 11:24:55;;;;;;;6.22;2.08;;;27.20;99.90;;;;;;4995785;28;20030;-76
2022/05/23 11:35:59;;;;;;;7.47;2.35;;;28.30;97.90;;;;;;4993316;28;20057;-75
2022/05/23 11:38:27;;;;;;;7.20;2.40;;;28.10;96.90;;;;;;4991300;28;20088;-74
2022/05/23 11:40:59;;;;;;;7.57;2.47;;;28.20;98.20;;;;;;4995842;28;20027;-73
2022/05/23 11:43:27;;;;;;;8.85;2.50;;;28.20;97.80;;;;;;4995309;28;20034;-73
2022/05/23 11:46:06;;;;;;;7.50;2.85;;;28.30;98.10;;;;;;4995340;28;20023;-75
2022/05/23 11:48:34;;;;;;;7.78;2.63;;;28.50;98.50;;;;;;4985477;28;20026;-75
2022/05/23 11:51:09;;;;;;;12.25;2.88;;;28.80;96.30;;;;;;4991856;28;20500;-76
2022/05/23 11:53:44;;;;;;;11.27;3.50;;;29.10;97.00;;;;;;4987162;28;20498;-76
2022/05/23 11:56:31;;;;;;;10.40;2.67;;;29.20;95.10;;;;;;4975513;28;20395;-76
2022/05/23 11:58:57;;;;;;;8.25;3.00;;;29.40;95.30;;;;;;4994656;28;20026;-74
2022/05/23 12:01:26;;;;;;;10.45;3.50;;;29.50;94.90;;;;;;4979974;28;20035;-75
2022/05/23 12:03:55;;;;;;;8.90;3.00;;;29.40;94.40;;;;;;4968885;28;20077;-74
2022/05/23 12:06:24;;;;;;;9.60;2.80;;;29.50;94.20;;;;;;4969064;28;20058;-74
2022/05/23 12:09:03;;;;;;;6.72;2.53;;;29.60;93.80;;;;;;4989628;28;20026;-74
2022/05/23 12:11:34;;;;;;;8.75;2.75;;;30.00;93.40;;;;;;4996332;28;20019;-74
2022/05/23 12:14:12;;;;;;;7.07;3.10;;;29.90;92.10;;;;;;4967059;28;20446;-75
2022/05/23 12:17:06;;;;;;;7.43;2.67;;;29.80;92.60;;;;;;4982423;28;20038;-75
2022/05/23 12:19:40;;;;;;;14.05;3.05;;;29.80;92.80;;;;;;5012412;28;20471;-75
2022/05/23 12:22:15;;;;;;;;;;;30.00;92.40;;;;;;5002605;28;20045;-76
2022/05/23 12:25:08;;;;;;;7.75;2.75;;;30.40;93.10;;;;;;4961462;28;20049;-75
2022/05/23 12:28:00;;;;;;;9.75;3.13;;;30.80;90.70;;;;;;4988127;28;20431;-74
2022/05/23 12:30:27;;;;;;;7.95;2.90;;;30.90;90.20;;;;;;4991284;28;20034;-75
2022/05/23 12:32:55;;;;;;;10.45;3.53;;;30.70;91.60;;;;;;4989797;28;20497;-74
2022/05/23 12:35:31;;;;;;;8.48;2.88;;;30.60;91.40;;;;;;4991128;28;20124;-74
2022/05/23 12:37:57;;;;;;;11.60;3.35;;;30.70;91.80;;;;;;4989422;28;20037;-74
2022/05/23 12:40:45;;;;;;;7.63;2.50;;;30.90;91.20;;;;;;4976592;28;20105;-74
2022/05/23 12:43:33;;;;;;;9.18;3.22;;;30.90;90.30;;;;;;4992695;28;20030;-77
2022/05/23 12:46:35;;;;;;;9.43;2.78;;;30.90;90.00;;;;;;4992562;28;20378;-77
2022/05/23 12:49:32;;;;;;;9.07;2.65;;;31.00;90.60;;;;;;5014179;28;20100;-76
2022/05/23 12:52:22;;;;;;;6.95;2.47;;;31.10;89.10;;;;;;4983314;28;20089;-77
2022/05/23 12:55:06;;;;;;;7.68;2.60;;;31.00;90.20;;;;;;4993957;28;20366;-75
2022/05/23 12:58:11;;;;;;;8.88;2.90;;;30.80;89.10;;;;;;4994271;28;20030;-75
2022/05/23 13:00:47;;;;;;;13.33;3.17;;;30.30;90.60;;;;;;4994105;28;20042;-75
2022/05/23 13:03:30;;;;;;;8.45;2.70;;;30.50;90.50;;;;;;4994367;28;20398;-75
2022/05/23 13:06:23;;;;;;;11.90;2.63;;;30.80;90.60;;;;;;4980436;28;20023;-75
2022/05/23 13:08:59;;;;;;;11.40;3.40;;;30.40;90.70;;;;;;4974666;28;20019;-74
2022/05/23 13:11:33;;;;;;;9.50;2.35;;;30.70;89.40;;;;;;4984114;28;20035;-74
2022/05/23 13:13:58;;;;;;;12.00;3.07;;;30.70;87.20;;;;;;4971041;28;20027;-74
2022/05/23 13:16:27;;;;;;;8.88;2.60;;;30.80;85.90;;;;;;4986917;28;20764;-74
2022/05/23 13:27:16;;;;;;;10.20;2.80;;;29.90;90.90;;;;;;4984230;28;20140;-73
2022/05/23 13:29:42;;;;;;;10.07;3.50;;;29.80;89.80;;;;;;4992514;28;20108;-73
2022/05/23 13:32:16;;;;;;;8.30;2.78;;;29.70;88.80;;;;;;4960998;28;20487;-73
2022/05/23 13:34:44;;;;;;;9.63;2.80;;;29.80;90.10;;;;;;4972805;28;20061;-73
2022/05/23 13:37:10;;;;;;;12.25;2.63;;;29.60;90.70;;;;;;4972459;28;20148;-73
2022/05/23 13:39:46;;;;;;;6.45;2.45;;;29.50;90.10;;;;;;4973299;28;20125;-73
2022/05/23 13:42:26;;;;;;;8.68;2.55;;;29.20;90.30;;;;;;4955551;28;20050;-73
2022/05/23 13:44:52;;;;;;;10.10;2.97;;;29.10;91.50;;;;;;4955747;28;20098;-73
2022/05/23 13:47:27;;;;;;;6.90;2.70;;;29.00;91.20;;;;;;4992640;28;20030;-72
2022/05/23 13:50:01;;;;;;;6.40;2.60;;;28.70;90.70;;;;;;4990642;28;20033;-72
2022/05/23 13:52:35;;;;;;;14.60;3.38;;;28.40;90.30;;;;;;4983602;28;20427;-73
2022/05/23 13:55:09;;;;;;;11.60;3.05;;;28.30;89.90;;;;;;4990235;28;20034;-73
2022/05/23 13:57:48;;;;;;;7.72;3.33;;;27.90;90.10;;;;;;4996523;28;20049;-72
2022/05/23 14:00:36;;;;;;;11.55;2.92;;;27.70;91.30;;;;;;4996817;28;20101;-72
2022/05/23 14:03:35;;;;;;;9.13;3.17;;;27.40;91.60;;;;;;4995887;28;20093;-72
2022/05/23 14:06:05;;;;;;;9.40;3.08;;;27.10;92.00;;;;;;4977637;28;20066;-79
2022/05/23 14:08:42;;;;;;;8.82;2.80;;;26.80;93.40;;;;;;4986892;28;20026;-77
2022/05/23 14:11:45;;;;;;;9.65;3.03;;;26.60;94.40;;;;;;4985193;28;20014;-77
2022/05/23 14:14:29;;;;;;;13.68;4.22;;;26.40;94.90;;;;;;4982992;28;20106;-78
2022/05/23 14:16:58;;;;;;;11.95;2.90;;;26.30;96.10;;;;;;4987350;28;20031;-77
2022/05/23 14:19:25;;;;;;;10.52;3.22;;;26.10;95.00;;;;;;4978645;28;20382;-77